createdAt,value
2022-10-19T00:02:11.578Z,20.59
2022-10-19T00:07:27.022Z,20.58
2022-10-19T00:12:41.974Z,20.56
2022-10-19T00:17:57.200Z,20.59
2022-10-19T00:23:12.172Z,20.57
2022-10-19T00:28:27.615Z,20.57
2022-10-19T00:33:43.161Z,20.54
2022-10-19T00:38:58.182Z,20.55
2022-10-19T00:44:13.186Z,20.52
2022-10-19T00:49:28.604Z,20.51
2022-10-19T00:54:44.225Z,20.50
2022-10-19T01:00:05.322Z,20.51
2022-10-19T01:06:07.490Z,20.50
2022-10-19T01:11:23.651Z,20.50
2022-10-19T01:16:39.240Z,20.49
2022-10-19T01:21:54.231Z,20.47
2022-10-19T01:27:09.511Z,20.46
2022-10-19T01:32:25.307Z,20.44
2022-10-19T01:37:40.181Z,20.41
2022-10-19T01:48:09.998Z,20.40
2022-10-19T01:53:25.517Z,20.39
2022-10-19T01:58:41.230Z,20.39
2022-10-19T02:03:57.212Z,20.38
2022-10-19T02:09:12.217Z,20.37
2022-10-19T02:14:27.191Z,20.36
2022-10-19T02:19:42.203Z,20.35
2022-10-19T02:24:57.587Z,20.34
2022-10-19T02:30:13.221Z,20.36
2022-10-19T02:35:28.512Z,20.36
2022-10-19T02:40:44.505Z,20.37
2022-10-19T02:46:00.525Z,20.36
2022-10-19T02:51:16.217Z,20.36
2022-10-19T02:56:31.385Z,20.35
2022-10-19T03:01:46.405Z,20.35
2022-10-19T03:07:02.195Z,20.36
2022-10-19T03:12:17.200Z,20.35
2022-10-19T03:17:32.463Z,20.34
2022-10-19T03:22:48.583Z,20.34
2022-10-19T03:28:04.529Z,20.34
2022-10-19T03:33:20.574Z,20.36
2022-10-19T03:38:36.199Z,20.35
2022-10-19T03:43:51.262Z,20.27
2022-10-19T03:49:06.507Z,20.16
2022-10-19T03:54:25.016Z,20.07
2022-10-19T03:59:42.225Z,20.00
2022-10-19T04:04:57.315Z,19.93
2022-10-19T04:10:12.234Z,19.87
2022-10-19T04:15:27.274Z,19.81
2022-10-19T04:20:42.186Z,19.77
2022-10-19T04:25:57.257Z,19.73
2022-10-19T04:31:12.276Z,19.71
2022-10-19T04:36:27.228Z,19.68
2022-10-19T04:41:42.504Z,19.66
2022-10-19T04:46:58.207Z,19.64
2022-10-19T04:52:13.226Z,19.61
2022-10-19T04:57:28.213Z,19.59
2022-10-19T05:02:43.286Z,19.58
2022-10-19T05:07:58.529Z,19.56
2022-10-19T05:13:14.185Z,19.53
2022-10-19T05:18:29.204Z,19.50
2022-10-19T05:23:44.203Z,19.48
2022-10-19T05:28:59.297Z,19.44
2022-10-19T05:34:14.195Z,19.43
2022-10-19T05:39:29.248Z,19.41
2022-10-19T05:44:44.255Z,19.37
2022-10-19T05:49:59.188Z,19.34
2022-10-19T05:55:14.627Z,19.31
2022-10-19T06:00:30.202Z,19.30
2022-10-19T06:05:45.252Z,19.27
2022-10-19T06:11:00.539Z,19.24
2022-10-19T06:16:16.203Z,19.21
2022-10-19T06:21:31.241Z,19.17
2022-10-19T06:26:46.375Z,19.13
2022-10-19T06:32:02.263Z,19.09
2022-10-19T06:37:17.514Z,19.06
2022-10-19T06:42:33.233Z,19.03
2022-10-19T06:47:48.958Z,19.01
2022-10-19T06:53:04.286Z,18.99
2022-10-19T06:58:19.230Z,18.97
2022-10-19T07:03:34.236Z,18.94
2022-10-19T07:08:49.543Z,18.91
2022-10-19T07:14:05.292Z,18.88
2022-10-19T07:19:20.255Z,18.85
2022-10-19T07:24:35.252Z,18.82
2022-10-19T07:29:50.267Z,18.82
2022-10-19T07:35:05.230Z,18.78
2022-10-19T07:40:20.560Z,18.77
2022-10-19T07:45:36.091Z,18.75
2022-10-19T07:50:51.261Z,18.77
2022-10-19T07:56:06.214Z,18.74
2022-10-19T08:01:21.263Z,18.73
2022-10-19T08:06:36.003Z,18.71
2022-10-19T08:11:51.229Z,18.67
2022-10-19T08:17:06.267Z,18.66
2022-10-19T08:22:21.256Z,18.63
2022-10-19T08:32:51.224Z,18.60
2022-10-19T08:38:06.298Z,18.58
2022-10-19T08:43:21.236Z,18.55
2022-10-19T08:48:36.244Z,18.53
2022-10-19T08:53:51.563Z,18.51
2022-10-19T08:59:07.217Z,18.49
2022-10-19T09:04:21.989Z,18.50
2022-10-19T09:09:37.322Z,18.49
2022-10-19T09:14:52.215Z,18.50
2022-10-19T09:20:07.212Z,18.50
2022-10-19T09:25:22.282Z,18.48
2022-10-19T09:30:37.237Z,18.48
2022-10-19T09:35:52.283Z,18.46
2022-10-19T09:41:07.233Z,18.52
2022-10-19T09:46:22.263Z,18.53
2022-10-19T09:51:37.535Z,18.54
2022-10-19T09:56:53.253Z,18.56
2022-10-19T10:02:08.242Z,18.58
2022-10-19T10:07:23.528Z,18.62
2022-10-19T10:12:39.564Z,18.63
2022-10-19T10:17:55.238Z,18.63
2022-10-19T10:23:10.326Z,18.61
2022-10-19T10:28:25.235Z,18.59
2022-10-19T10:33:44.662Z,18.59
2022-10-19T10:39:00.255Z,18.59
2022-10-19T10:44:15.253Z,18.64
2022-10-19T10:49:30.001Z,18.92
2022-10-19T10:54:45.253Z,19.13
2022-10-19T11:00:00.269Z,19.28
2022-10-19T11:05:15.255Z,19.42
2022-10-19T11:10:30.231Z,19.54
2022-10-19T11:15:45.579Z,19.58
2022-10-19T11:21:01.279Z,19.50
2022-10-19T11:26:26.316Z,19.43
2022-10-19T11:31:42.279Z,19.37
2022-10-19T11:36:57.259Z,19.34
2022-10-19T11:42:12.240Z,19.29
2022-10-19T11:47:27.262Z,19.23
2022-10-19T11:52:42.233Z,19.20
2022-10-19T11:57:57.311Z,19.14
2022-10-19T12:03:12.243Z,19.10
2022-10-19T12:08:27.312Z,19.10
2022-10-19T12:13:42.595Z,19.12
2022-10-19T12:18:58.663Z,19.14
2022-10-19T12:24:14.258Z,19.14
2022-10-19T12:29:29.242Z,19.13
2022-10-19T12:34:44.315Z,19.15
2022-10-19T12:39:59.590Z,19.16
2022-10-19T12:45:15.263Z,19.19
2022-10-19T12:50:30.893Z,19.19
2022-10-19T12:55:47.244Z,19.19
2022-10-19T13:01:02.346Z,19.19
2022-10-19T13:06:17.242Z,19.19
2022-10-19T13:11:32.600Z,19.15
2022-10-19T13:16:48.251Z,19.15
2022-10-19T13:22:03.236Z,19.18
2022-10-19T13:27:18.340Z,19.20
2022-10-19T13:32:33.681Z,19.21
2022-10-19T13:37:49.310Z,19.21
2022-10-19T13:43:04.297Z,19.20
2022-10-19T13:48:18.960Z,19.22
2022-10-19T13:53:34.883Z,19.24
2022-10-19T13:58:50.239Z,19.23
2022-10-19T14:04:05.662Z,19.24
2022-10-19T14:09:21.029Z,19.50
2022-10-19T14:14:36.278Z,19.70
2022-10-19T14:19:51.265Z,19.84
2022-10-19T14:25:06.366Z,19.93
2022-10-19T14:30:21.239Z,20.02
2022-10-19T14:35:36.224Z,20.06
2022-10-19T14:40:51.284Z,19.99
2022-10-19T14:46:06.290Z,19.93
2022-10-19T14:51:21.248Z,20.05
2022-10-19T14:56:36.363Z,20.16
2022-10-19T15:01:51.685Z,20.22
2022-10-19T15:07:07.309Z,20.24
2022-10-19T15:12:22.287Z,20.29
2022-10-19T15:17:37.282Z,20.32
2022-10-19T15:22:52.365Z,20.30
2022-10-19T15:28:07.309Z,20.32
2022-10-19T15:33:22.287Z,20.30
2022-10-19T15:38:37.245Z,20.24
2022-10-19T15:43:52.718Z,20.29
2022-10-19T15:49:08.257Z,20.30
2022-10-19T15:54:23.294Z,20.32
2022-10-19T15:59:38.591Z,20.33
2022-10-19T16:04:54.694Z,20.32
2022-10-19T16:10:10.588Z,20.33
2022-10-19T16:15:26.655Z,20.34
2022-10-19T16:20:41.601Z,20.35
2022-10-19T16:25:57.320Z,20.38
2022-10-19T16:31:12.577Z,20.40
2022-10-19T16:36:28.580Z,20.42
2022-10-19T16:41:44.588Z,20.42
2022-10-19T16:47:00.321Z,20.42
2022-10-19T16:52:15.555Z,20.46
2022-10-19T16:57:31.251Z,20.46
2022-10-19T17:02:46.672Z,20.46
2022-10-19T17:08:02.572Z,20.47
2022-10-19T17:13:18.142Z,20.46
2022-10-19T17:18:33.316Z,20.47
2022-10-19T17:23:48.360Z,20.46
2022-10-19T17:29:03.264Z,20.46
2022-10-19T17:34:18.260Z,20.43
2022-10-19T17:39:33.610Z,20.42
2022-10-19T17:44:52.292Z,20.39
2022-10-19T17:50:07.363Z,20.39
2022-10-19T18:00:37.782Z,20.32
2022-10-19T18:05:53.301Z,20.35
2022-10-19T18:11:08.589Z,20.34
2022-10-19T18:16:24.296Z,20.30
2022-10-19T18:21:39.308Z,20.31
2022-10-19T18:26:54.318Z,20.31
2022-10-19T18:32:09.747Z,20.29
2022-10-19T18:37:26.626Z,20.30
2022-10-19T18:42:42.881Z,20.27
2022-10-19T18:47:58.355Z,20.25
2022-10-19T18:53:13.531Z,20.27
2022-10-19T18:58:29.687Z,20.26
2022-10-19T19:03:45.301Z,20.28
2022-10-19T19:09:00.301Z,20.29
2022-10-19T19:14:15.305Z,20.30
2022-10-19T19:19:30.628Z,20.30
2022-10-19T19:24:46.341Z,20.31
2022-10-19T19:30:01.298Z,20.30
2022-10-19T19:35:16.431Z,20.30
2022-10-19T19:40:31.284Z,20.29
2022-10-19T19:45:46.606Z,20.27
2022-10-19T19:51:03.583Z,20.28
2022-10-19T19:56:20.581Z,20.30
2022-10-19T20:01:36.099Z,20.30
2022-10-19T20:06:51.363Z,20.30
2022-10-19T20:12:06.639Z,20.31
2022-10-19T20:17:22.357Z,20.31
2022-10-19T20:22:37.317Z,20.31
2022-10-19T20:27:52.363Z,20.31
2022-10-19T20:33:07.297Z,20.35
2022-10-19T20:38:22.264Z,20.37
2022-10-19T20:43:37.308Z,20.39
2022-10-19T20:48:52.591Z,20.40
2022-10-19T20:54:08.611Z,20.43
2022-10-19T20:59:24.053Z,20.41
2022-10-19T21:04:39.266Z,20.44
2022-10-19T21:09:54.377Z,20.43
2022-10-19T21:15:09.270Z,20.44
2022-10-19T21:20:24.608Z,20.45
2022-10-19T21:25:40.312Z,20.45
2022-10-19T21:30:55.596Z,20.47
2022-10-19T21:36:11.508Z,20.44
2022-10-19T21:41:27.297Z,20.44
2022-10-19T21:46:42.287Z,20.47
2022-10-19T21:51:57.554Z,20.46
2022-10-19T21:57:14.118Z,20.47
2022-10-19T22:02:29.279Z,20.49
2022-10-19T22:07:44.279Z,20.46
2022-10-19T22:12:59.694Z,20.49
2022-10-19T22:18:15.291Z,20.50
2022-10-19T22:23:30.286Z,20.51
2022-10-19T22:28:45.265Z,20.50
2022-10-19T22:34:00.255Z,20.50
2022-10-19T22:39:15.318Z,20.50
2022-10-19T22:44:30.291Z,20.48
2022-10-19T22:49:45.638Z,20.46
2022-10-19T22:55:01.280Z,20.44
2022-10-19T23:00:16.311Z,20.41
2022-10-19T23:05:31.585Z,20.39
2022-10-19T23:10:47.052Z,20.36
2022-10-19T23:16:02.144Z,20.34
2022-10-19T23:21:17.294Z,20.33
2022-10-19T23:26:32.270Z,20.32
2022-10-19T23:31:47.617Z,20.30
2022-10-19T23:37:03.342Z,20.29
2022-10-19T23:42:18.063Z,20.29
2022-10-19T23:47:33.505Z,20.28
2022-10-19T23:52:49.617Z,20.29
2022-10-19T23:58:05.325Z,20.27
